< < Back
Terminal Aerodrome Forecast


Current Version              Previous Versions:   1  2  3  4  5  6  7  8  9  

Terminal Aerodrome Forecast

146
FTUS42 KJAX 011700
TAFGNV
TAF
KGNV 011721Z 0118/0218 VRB03KT P6SM SCT040 SCT060
     FM012100 12008KT P6SM VCTS SCT040CB BKN250
      TEMPO 0121/0124 2SM TSRA BR OVC030CB
     FM020000 15005KT P6SM FEW040 BKN250
     FM020300 VRB03KT P6SM SCT250
     FM021300 23003KT P6SM SCT030=

Latest METAR

376
SAUS70 KWBC 020200 RRN
MTRGNV
METAR KGNV 020153Z 00000KT 10SM CLR 24/23 A3009 RMK AO2 LTG DSNT NW
SLP186 T02440233 $


USA.gov is the U.S. government's official web portal to all federal, state and local government web resources and services.